sensor_id;sensor_type;location;lat;lon;timestamp;P1;durP1;ratioP1;P2;durP2;ratioP2
9819;SDS011;4949;48.482;9.206;2023-03-18T00:01:00;6.20;;;5.60;;
9819;SDS011;4949;48.482;9.206;2023-03-18T00:06:04;6.37;;;5.47;;
9819;SDS011;4949;48.482;9.206;2023-03-18T00:11:13;4.70;;;4.30;;
9819;SDS011;4949;48.482;9.206;2023-03-18T00:16:21;5.10;;;4.60;;
9819;SDS011;4949;48.482;9.206;2023-03-18T00:21:22;8.20;;;4.00;;
9819;SDS011;4949;48.482;9.206;2023-03-18T00:26:24;4.60;;;4.00;;
9819;SDS011;4949;48.482;9.206;2023-03-18T00:31:28;5.33;;;3.20;;
9819;SDS011;4949;48.482;9.206;2023-03-18T00:36:29;6.30;;;5.23;;
9819;SDS011;4949;48.482;9.206;2023-03-18T00:41:31;5.10;;;4.60;;
9819;SDS011;4949;48.482;9.206;2023-03-18T00:46:35;3.83;;;3.37;;
9819;SDS011;4949;48.482;9.206;2023-03-18T00:51:37;7.40;;;4.00;;
9819;SDS011;4949;48.482;9.206;2023-03-18T00:56:41;5.50;;;4.60;;
9819;SDS011;4949;48.482;9.206;2023-03-18T01:01:42;4.50;;;3.77;;
9819;SDS011;4949;48.482;9.206;2023-03-18T01:06:42;3.70;;;3.27;;
9819;SDS011;4949;48.482;9.206;2023-03-18T01:11:44;5.07;;;3.00;;
9819;SDS011;4949;48.482;9.206;2023-03-18T01:16:44;4.00;;;3.70;;
9819;SDS011;4949;48.482;9.206;2023-03-18T01:21:45;4.00;;;3.60;;
9819;SDS011;4949;48.482;9.206;2023-03-18T01:26:46;6.00;;;3.13;;
9819;SDS011;4949;48.482;9.206;2023-03-18T01:31:48;4.37;;;3.87;;
9819;SDS011;4949;48.482;9.206;2023-03-18T01:36:52;2.90;;;2.60;;
9819;SDS011;4949;48.482;9.206;2023-03-18T01:41:53;3.90;;;3.60;;
9819;SDS011;4949;48.482;9.206;2023-03-18T01:46:53;6.00;;;3.83;;
9819;SDS011;4949;48.482;9.206;2023-03-18T01:51:59;3.70;;;3.10;;
9819;SDS011;4949;48.482;9.206;2023-03-18T01:57:07;3.30;;;2.90;;
9819;SDS011;4949;48.482;9.206;2023-03-18T02:02:09;4.03;;;2.63;;
9819;SDS011;4949;48.482;9.206;2023-03-18T02:07:14;2.90;;;2.60;;
9819;SDS011;4949;48.482;9.206;2023-03-18T02:12:24;3.67;;;2.77;;
9819;SDS011;4949;48.482;9.206;2023-03-18T02:17:33;3.50;;;2.73;;
9819;SDS011;4949;48.482;9.206;2023-03-18T02:22:43;3.43;;;2.63;;
9819;SDS011;4949;48.482;9.206;2023-03-18T02:27:58;3.43;;;2.93;;
9819;SDS011;4949;48.482;9.206;2023-03-18T02:33:04;3.60;;;3.30;;
9819;SDS011;4949;48.482;9.206;2023-03-18T02:38:06;2.90;;;2.60;;
9819;SDS011;4949;48.482;9.206;2023-03-18T02:43:22;3.67;;;2.63;;
9819;SDS011;4949;48.482;9.206;2023-03-18T02:48:28;3.87;;;2.90;;
9819;SDS011;4949;48.482;9.206;2023-03-18T02:53:35;3.70;;;3.10;;
9819;SDS011;4949;48.482;9.206;2023-03-18T02:58:36;2.70;;;2.50;;
9819;SDS011;4949;48.482;9.206;2023-03-18T03:03:38;2.90;;;2.70;;
9819;SDS011;4949;48.482;9.206;2023-03-18T03:08:39;2.87;;;2.60;;
9819;SDS011;4949;48.482;9.206;2023-03-18T03:13:41;2.57;;;2.37;;
9819;SDS011;4949;48.482;9.206;2023-03-18T03:18:46;3.80;;;2.30;;
9819;SDS011;4949;48.482;9.206;2023-03-18T03:23:47;3.97;;;2.57;;
9819;SDS011;4949;48.482;9.206;2023-03-18T03:28:48;3.87;;;2.90;;
9819;SDS011;4949;48.482;9.206;2023-03-18T03:33:52;2.53;;;2.30;;
9819;SDS011;4949;48.482;9.206;2023-03-18T03:38:53;2.80;;;2.53;;
9819;SDS011;4949;48.482;9.206;2023-03-18T03:43:54;3.30;;;3.00;;
9819;SDS011;4949;48.482;9.206;2023-03-18T03:48:57;3.40;;;2.70;;
9819;SDS011;4949;48.482;9.206;2023-03-18T03:53:58;3.37;;;3.07;;
9819;SDS011;4949;48.482;9.206;2023-03-18T03:58:59;2.60;;;2.40;;
9819;SDS011;4949;48.482;9.206;2023-03-18T04:03:59;5.67;;;3.60;;
9819;SDS011;4949;48.482;9.206;2023-03-18T04:09:03;3.43;;;3.10;;
9819;SDS011;4949;48.482;9.206;2023-03-18T04:14:04;3.47;;;3.10;;
9819;SDS011;4949;48.482;9.206;2023-03-18T04:19:06;3.57;;;3.20;;
9819;SDS011;4949;48.482;9.206;2023-03-18T04:24:07;3.23;;;2.40;;
9819;SDS011;4949;48.482;9.206;2023-03-18T04:29:11;3.60;;;3.00;;
9819;SDS011;4949;48.482;9.206;2023-03-18T04:34:12;2.80;;;2.60;;
9819;SDS011;4949;48.482;9.206;2023-03-18T04:39:16;3.07;;;2.77;;
9819;SDS011;4949;48.482;9.206;2023-03-18T04:44:17;4.10;;;2.90;;
9819;SDS011;4949;48.482;9.206;2023-03-18T04:49:20;2.90;;;2.70;;
9819;SDS011;4949;48.482;9.206;2023-03-18T04:54:23;3.73;;;2.70;;
9819;SDS011;4949;48.482;9.206;2023-03-18T04:59:24;2.30;;;2.20;;
9819;SDS011;4949;48.482;9.206;2023-03-18T05:04:25;2.67;;;2.40;;
9819;SDS011;4949;48.482;9.206;2023-03-18T05:09:29;3.40;;;3.10;;
9819;SDS011;4949;48.482;9.206;2023-03-18T05:14:33;3.00;;;2.80;;
9819;SDS011;4949;48.482;9.206;2023-03-18T05:19:33;3.90;;;3.30;;
9819;SDS011;4949;48.482;9.206;2023-03-18T05:24:34;3.93;;;2.80;;
9819;SDS011;4949;48.482;9.206;2023-03-18T05:29:36;2.67;;;2.43;;
9819;SDS011;4949;48.482;9.206;2023-03-18T05:34:42;3.27;;;2.50;;
9819;SDS011;4949;48.482;9.206;2023-03-18T05:39:43;4.60;;;2.53;;
9819;SDS011;4949;48.482;9.206;2023-03-18T05:44:44;2.83;;;2.63;;
9819;SDS011;4949;48.482;9.206;2023-03-18T05:49:47;2.90;;;2.60;;
9819;SDS011;4949;48.482;9.206;2023-03-18T05:54:48;3.30;;;2.30;;
9819;SDS011;4949;48.482;9.206;2023-03-18T05:59:49;2.63;;;2.33;;
9819;SDS011;4949;48.482;9.206;2023-03-18T06:04:52;2.30;;;2.07;;
9819;SDS011;4949;48.482;9.206;2023-03-18T06:09:54;6.07;;;2.77;;
9819;SDS011;4949;48.482;9.206;2023-03-18T06:14:54;3.13;;;2.83;;
9819;SDS011;4949;48.482;9.206;2023-03-18T06:19:55;3.60;;;2.87;;
9819;SDS011;4949;48.482;9.206;2023-03-18T06:24:58;3.50;;;2.70;;
9819;SDS011;4949;48.482;9.206;2023-03-18T06:29:59;4.00;;;2.60;;
9819;SDS011;4949;48.482;9.206;2023-03-18T06:35:03;4.30;;;3.90;;
9819;SDS011;4949;48.482;9.206;2023-03-18T06:40:05;3.70;;;2.60;;
9819;SDS011;4949;48.482;9.206;2023-03-18T06:45:08;4.13;;;2.67;;
9819;SDS011;4949;48.482;9.206;2023-03-18T06:50:10;2.57;;;2.37;;
9819;SDS011;4949;48.482;9.206;2023-03-18T06:55:12;2.70;;;2.50;;
9819;SDS011;4949;48.482;9.206;2023-03-18T07:00:16;2.97;;;2.70;;
9819;SDS011;4949;48.482;9.206;2023-03-18T07:05:18;3.33;;;2.80;;
9819;SDS011;4949;48.482;9.206;2023-03-18T07:10:23;3.50;;;3.20;;
9819;SDS011;4949;48.482;9.206;2023-03-18T07:15:27;5.23;;;4.20;;
9819;SDS011;4949;48.482;9.206;2023-03-18T07:20:27;3.60;;;3.30;;
9819;SDS011;4949;48.482;9.206;2023-03-18T07:25:28;22.43;;;4.60;;
9819;SDS011;4949;48.482;9.206;2023-03-18T07:30:31;4.60;;;4.10;;
9819;SDS011;4949;48.482;9.206;2023-03-18T07:35:32;4.43;;;4.03;;
9819;SDS011;4949;48.482;9.206;2023-03-18T07:40:34;4.50;;;3.40;;
9819;SDS011;4949;48.482;9.206;2023-03-18T07:45:36;2.83;;;2.60;;
9819;SDS011;4949;48.482;9.206;2023-03-18T07:50:37;4.07;;;3.20;;
9819;SDS011;4949;48.482;9.206;2023-03-18T07:55:38;5.77;;;3.53;;
9819;SDS011;4949;48.482;9.206;2023-03-18T08:00:40;5.50;;;3.00;;
9819;SDS011;4949;48.482;9.206;2023-03-18T08:05:41;3.87;;;3.50;;
9819;SDS011;4949;48.482;9.206;2023-03-18T08:10:45;5.23;;;4.27;;
9819;SDS011;4949;48.482;9.206;2023-03-18T08:15:45;6.80;;;4.53;;
9819;SDS011;4949;48.482;9.206;2023-03-18T08:20:49;3.80;;;3.40;;
9819;SDS011;4949;48.482;9.206;2023-03-18T08:25:49;3.67;;;3.20;;
9819;SDS011;4949;48.482;9.206;2023-03-18T08:30:54;4.20;;;3.50;;
9819;SDS011;4949;48.482;9.206;2023-03-18T08:35:56;4.37;;;3.33;;
9819;SDS011;4949;48.482;9.206;2023-03-18T08:40:58;3.47;;;3.10;;
9819;SDS011;4949;48.482;9.206;2023-03-18T08:45:59;5.20;;;3.40;;
9819;SDS011;4949;48.482;9.206;2023-03-18T08:51:03;3.47;;;3.13;;
9819;SDS011;4949;48.482;9.206;2023-03-18T08:56:07;4.87;;;4.03;;
9819;SDS011;4949;48.482;9.206;2023-03-18T09:01:07;4.83;;;3.20;;
9819;SDS011;4949;48.482;9.206;2023-03-18T09:06:11;3.10;;;2.67;;
9819;SDS011;4949;48.482;9.206;2023-03-18T09:11:11;3.40;;;3.10;;
9819;SDS011;4949;48.482;9.206;2023-03-18T09:16:15;4.90;;;3.43;;
9819;SDS011;4949;48.482;9.206;2023-03-18T09:21:17;4.27;;;3.30;;
9819;SDS011;4949;48.482;9.206;2023-03-18T09:26:18;2.80;;;2.30;;
9819;SDS011;4949;48.482;9.206;2023-03-18T09:31:21;2.10;;;1.90;;
9819;SDS011;4949;48.482;9.206;2023-03-18T09:36:26;1.80;;;1.70;;
9819;SDS011;4949;48.482;9.206;2023-03-18T09:41:31;2.07;;;1.60;;
9819;SDS011;4949;48.482;9.206;2023-03-18T09:52:34;2.70;;;1.80;;
9819;SDS011;4949;48.482;9.206;2023-03-18T09:57:45;3.57;;;1.83;;
9819;SDS011;4949;48.482;9.206;2023-03-18T10:08:41;2.07;;;1.80;;
9819;SDS011;4949;48.482;9.206;2023-03-18T10:19:36;1.90;;;1.60;;
9819;SDS011;4949;48.482;9.206;2023-03-18T10:24:43;2.20;;;2.10;;
9819;SDS011;4949;48.482;9.206;2023-03-18T10:30:30;3.80;;;1.40;;
9819;SDS011;4949;48.482;9.206;2023-03-18T10:35:56;2.07;;;1.87;;
9819;SDS011;4949;48.482;9.206;2023-03-18T10:41:12;3.20;;;2.10;;
9819;SDS011;4949;48.482;9.206;2023-03-18T10:46:32;1.70;;;1.60;;
9819;SDS011;4949;48.482;9.206;2023-03-18T10:51:56;1.90;;;1.50;;
9819;SDS011;4949;48.482;9.206;2023-03-18T10:57:00;5.17;;;1.97;;
9819;SDS011;4949;48.482;9.206;2023-03-18T11:02:02;4.73;;;1.70;;
9819;SDS011;4949;48.482;9.206;2023-03-18T11:07:12;3.33;;;2.00;;
9819;SDS011;4949;48.482;9.206;2023-03-18T11:12:26;1.97;;;1.80;;
9819;SDS011;4949;48.482;9.206;2023-03-18T11:17:30;2.90;;;1.60;;
9819;SDS011;4949;48.482;9.206;2023-03-18T11:22:35;2.17;;;1.90;;
9819;SDS011;4949;48.482;9.206;2023-03-18T11:27:42;1.73;;;1.63;;
9819;SDS011;4949;48.482;9.206;2023-03-18T11:38:00;2.50;;;1.90;;
9819;SDS011;4949;48.482;9.206;2023-03-18T11:43:10;2.20;;;2.00;;
9819;SDS011;4949;48.482;9.206;2023-03-18T12:16:08;2.63;;;1.90;;
9819;SDS011;4949;48.482;9.206;2023-03-18T12:54:24;2.63;;;2.10;;
9819;SDS011;4949;48.482;9.206;2023-03-18T12:59:51;2.30;;;2.10;;
9819;SDS011;4949;48.482;9.206;2023-03-18T13:04:58;2.57;;;2.00;;
9819;SDS011;4949;48.482;9.206;2023-03-18T13:10:11;2.90;;;1.83;;
9819;SDS011;4949;48.482;9.206;2023-03-18T13:20:37;1.93;;;1.77;;
9819;SDS011;4949;48.482;9.206;2023-03-18T13:42:30;2.40;;;2.20;;
9819;SDS011;4949;48.482;9.206;2023-03-18T13:47:40;2.03;;;1.83;;
9819;SDS011;4949;48.482;9.206;2023-03-18T13:52:43;1.80;;;1.70;;
9819;SDS011;4949;48.482;9.206;2023-03-18T13:57:59;2.03;;;1.87;;
9819;SDS011;4949;48.482;9.206;2023-03-18T14:13:49;2.37;;;1.97;;
9819;SDS011;4949;48.482;9.206;2023-03-18T14:19:21;3.70;;;1.90;;
9819;SDS011;4949;48.482;9.206;2023-03-18T14:24:31;1.77;;;1.53;;
9819;SDS011;4949;48.482;9.206;2023-03-18T14:29:41;2.07;;;1.87;;
9819;SDS011;4949;48.482;9.206;2023-03-18T14:34:57;5.60;;;2.23;;
9819;SDS011;4949;48.482;9.206;2023-03-18T14:40:27;3.73;;;1.90;;
9819;SDS011;4949;48.482;9.206;2023-03-18T14:45:38;4.03;;;2.10;;
9819;SDS011;4949;48.482;9.206;2023-03-18T14:50:48;3.53;;;2.30;;
9819;SDS011;4949;48.482;9.206;2023-03-18T14:55:56;2.97;;;2.17;;
9819;SDS011;4949;48.482;9.206;2023-03-18T15:01:07;2.43;;;2.00;;
9819;SDS011;4949;48.482;9.206;2023-03-18T15:06:19;2.90;;;2.07;;
9819;SDS011;4949;48.482;9.206;2023-03-18T15:11:24;2.20;;;2.00;;
9819;SDS011;4949;48.482;9.206;2023-03-18T15:16:25;2.80;;;1.80;;
9819;SDS011;4949;48.482;9.206;2023-03-18T15:21:32;2.93;;;2.00;;
9819;SDS011;4949;48.482;9.206;2023-03-18T15:26:37;4.30;;;2.03;;
9819;SDS011;4949;48.482;9.206;2023-03-18T15:31:41;2.10;;;1.90;;
9819;SDS011;4949;48.482;9.206;2023-03-18T15:36:45;3.50;;;2.00;;
9819;SDS011;4949;48.482;9.206;2023-03-18T15:41:55;2.43;;;2.23;;
9819;SDS011;4949;48.482;9.206;2023-03-18T15:47:17;3.53;;;2.03;;
9819;SDS011;4949;48.482;9.206;2023-03-18T15:52:30;2.53;;;2.20;;
9819;SDS011;4949;48.482;9.206;2023-03-18T15:57:38;3.10;;;2.27;;
9819;SDS011;4949;48.482;9.206;2023-03-18T16:02:41;3.50;;;2.60;;
9819;SDS011;4949;48.482;9.206;2023-03-18T16:07:44;4.40;;;3.93;;
9819;SDS011;4949;48.482;9.206;2023-03-18T16:12:55;6.77;;;3.97;;
9819;SDS011;4949;48.482;9.206;2023-03-18T16:18:03;3.47;;;3.17;;
9819;SDS011;4949;48.482;9.206;2023-03-18T16:23:04;3.63;;;2.90;;
9819;SDS011;4949;48.482;9.206;2023-03-18T16:28:09;3.43;;;2.60;;
9819;SDS011;4949;48.482;9.206;2023-03-18T16:33:19;2.60;;;2.40;;
9819;SDS011;4949;48.482;9.206;2023-03-18T16:38:22;3.17;;;2.87;;
9819;SDS011;4949;48.482;9.206;2023-03-18T16:43:24;3.97;;;2.83;;
9819;SDS011;4949;48.482;9.206;2023-03-18T16:48:30;4.00;;;3.30;;
9819;SDS011;4949;48.482;9.206;2023-03-18T16:53:34;3.90;;;3.00;;
9819;SDS011;4949;48.482;9.206;2023-03-18T16:58:35;4.60;;;3.00;;
9819;SDS011;4949;48.482;9.206;2023-03-18T17:03:38;3.30;;;3.00;;
9819;SDS011;4949;48.482;9.206;2023-03-18T17:08:38;4.10;;;3.70;;
9819;SDS011;4949;48.482;9.206;2023-03-18T17:13:39;5.70;;;4.43;;
9819;SDS011;4949;48.482;9.206;2023-03-18T17:18:40;5.77;;;5.00;;
9819;SDS011;4949;48.482;9.206;2023-03-18T17:23:41;6.37;;;4.50;;
9819;SDS011;4949;48.482;9.206;2023-03-18T17:28:47;5.53;;;5.03;;
9819;SDS011;4949;48.482;9.206;2023-03-18T17:33:49;4.33;;;3.83;;
9819;SDS011;4949;48.482;9.206;2023-03-18T17:38:50;3.67;;;3.37;;
9819;SDS011;4949;48.482;9.206;2023-03-18T17:43:57;5.67;;;5.07;;
9819;SDS011;4949;48.482;9.206;2023-03-18T17:48:58;5.70;;;4.43;;
9819;SDS011;4949;48.482;9.206;2023-03-18T17:53:59;6.13;;;5.50;;
9819;SDS011;4949;48.482;9.206;2023-03-18T17:59:04;8.47;;;5.40;;
9819;SDS011;4949;48.482;9.206;2023-03-18T18:04:17;6.43;;;5.80;;
9819;SDS011;4949;48.482;9.206;2023-03-18T18:09:20;5.70;;;4.50;;
9819;SDS011;4949;48.482;9.206;2023-03-18T18:14:23;6.30;;;4.40;;
9819;SDS011;4949;48.482;9.206;2023-03-18T18:19:27;4.57;;;3.93;;
9819;SDS011;4949;48.482;9.206;2023-03-18T18:24:28;5.80;;;4.50;;
9819;SDS011;4949;48.482;9.206;2023-03-18T18:29:32;7.13;;;6.43;;
9819;SDS011;4949;48.482;9.206;2023-03-18T18:34:33;5.97;;;5.37;;
9819;SDS011;4949;48.482;9.206;2023-03-18T18:39:34;7.30;;;5.50;;
9819;SDS011;4949;48.482;9.206;2023-03-18T18:44:35;7.07;;;6.37;;
9819;SDS011;4949;48.482;9.206;2023-03-18T18:49:36;9.47;;;6.33;;
9819;SDS011;4949;48.482;9.206;2023-03-18T18:54:37;8.13;;;6.27;;
9819;SDS011;4949;48.482;9.206;2023-03-18T18:59:38;8.87;;;8.07;;
9819;SDS011;4949;48.482;9.206;2023-03-18T19:04:39;7.83;;;7.00;;
9819;SDS011;4949;48.482;9.206;2023-03-18T19:09:40;7.60;;;6.90;;
9819;SDS011;4949;48.482;9.206;2023-03-18T19:14:41;8.47;;;7.67;;
9819;SDS011;4949;48.482;9.206;2023-03-18T19:19:42;10.57;;;8.77;;
9819;SDS011;4949;48.482;9.206;2023-03-18T19:24:47;9.13;;;8.33;;
9819;SDS011;4949;48.482;9.206;2023-03-18T19:29:49;10.53;;;9.63;;
9819;SDS011;4949;48.482;9.206;2023-03-18T19:34:52;10.80;;;9.70;;
9819;SDS011;4949;48.482;9.206;2023-03-18T19:39:54;10.83;;;9.77;;
9819;SDS011;4949;48.482;9.206;2023-03-18T19:44:59;11.00;;;9.80;;
9819;SDS011;4949;48.482;9.206;2023-03-18T19:50:00;22.70;;;11.53;;
9819;SDS011;4949;48.482;9.206;2023-03-18T19:55:01;12.53;;;11.17;;
9819;SDS011;4949;48.482;9.206;2023-03-18T20:00:25;11.77;;;9.50;;
9819;SDS011;4949;48.482;9.206;2023-03-18T20:05:26;12.10;;;10.50;;
9819;SDS011;4949;48.482;9.206;2023-03-18T20:10:26;9.40;;;8.37;;
9819;SDS011;4949;48.482;9.206;2023-03-18T20:15:28;11.63;;;9.43;;
9819;SDS011;4949;48.482;9.206;2023-03-18T20:20:30;9.80;;;8.80;;
9819;SDS011;4949;48.482;9.206;2023-03-18T20:25:38;9.47;;;8.57;;
9819;SDS011;4949;48.482;9.206;2023-03-18T20:30:45;11.10;;;10.00;;
9819;SDS011;4949;48.482;9.206;2023-03-18T20:35:51;13.33;;;9.73;;
9819;SDS011;4949;48.482;9.206;2023-03-18T20:40:55;11.60;;;10.50;;
9819;SDS011;4949;48.482;9.206;2023-03-18T20:45:57;11.63;;;9.70;;
9819;SDS011;4949;48.482;9.206;2023-03-18T20:51:00;12.80;;;9.23;;
9819;SDS011;4949;48.482;9.206;2023-03-18T20:56:04;10.33;;;9.10;;
9819;SDS011;4949;48.482;9.206;2023-03-18T21:01:07;13.87;;;11.00;;
9819;SDS011;4949;48.482;9.206;2023-03-18T21:06:13;10.13;;;8.60;;
9819;SDS011;4949;48.482;9.206;2023-03-18T21:11:19;8.20;;;6.57;;
9819;SDS011;4949;48.482;9.206;2023-03-18T21:16:28;6.93;;;6.07;;
9819;SDS011;4949;48.482;9.206;2023-03-18T21:21:32;10.03;;;7.47;;
9819;SDS011;4949;48.482;9.206;2023-03-18T21:26:38;9.60;;;8.53;;
9819;SDS011;4949;48.482;9.206;2023-03-18T21:31:39;9.20;;;8.27;;
9819;SDS011;4949;48.482;9.206;2023-03-18T21:36:40;11.20;;;9.13;;
9819;SDS011;4949;48.482;9.206;2023-03-18T21:41:41;8.87;;;7.63;;
9819;SDS011;4949;48.482;9.206;2023-03-18T21:46:41;10.33;;;9.33;;
9819;SDS011;4949;48.482;9.206;2023-03-18T21:51:43;10.83;;;9.80;;
9819;SDS011;4949;48.482;9.206;2023-03-18T21:56:46;11.23;;;9.23;;
9819;SDS011;4949;48.482;9.206;2023-03-18T22:01:47;12.43;;;10.50;;
9819;SDS011;4949;48.482;9.206;2023-03-18T22:06:47;12.00;;;9.63;;
9819;SDS011;4949;48.482;9.206;2023-03-18T22:11:48;14.30;;;11.00;;
9819;SDS011;4949;48.482;9.206;2023-03-18T22:16:49;11.27;;;9.97;;
9819;SDS011;4949;48.482;9.206;2023-03-18T22:21:50;12.57;;;11.27;;
9819;SDS011;4949;48.482;9.206;2023-03-18T22:26:53;15.83;;;9.90;;
9819;SDS011;4949;48.482;9.206;2023-03-18T22:31:53;11.03;;;8.50;;
9819;SDS011;4949;48.482;9.206;2023-03-18T22:36:55;13.37;;;9.57;;
9819;SDS011;4949;48.482;9.206;2023-03-18T22:41:58;13.40;;;10.00;;
9819;SDS011;4949;48.482;9.206;2023-03-18T22:46:58;13.30;;;10.50;;
9819;SDS011;4949;48.482;9.206;2023-03-18T22:52:01;10.10;;;8.73;;
9819;SDS011;4949;48.482;9.206;2023-03-18T22:57:03;11.30;;;7.70;;
9819;SDS011;4949;48.482;9.206;2023-03-18T23:02:04;6.93;;;6.00;;
9819;SDS011;4949;48.482;9.206;2023-03-18T23:12:32;8.83;;;7.83;;
9819;SDS011;4949;48.482;9.206;2023-03-18T23:17:33;9.20;;;8.03;;
9819;SDS011;4949;48.482;9.206;2023-03-18T23:22:34;8.00;;;7.20;;
9819;SDS011;4949;48.482;9.206;2023-03-18T23:27:37;6.87;;;5.53;;
9819;SDS011;4949;48.482;9.206;2023-03-18T23:32:38;8.20;;;6.20;;
9819;SDS011;4949;48.482;9.206;2023-03-18T23:37:42;7.00;;;5.50;;
9819;SDS011;4949;48.482;9.206;2023-03-18T23:42:45;5.50;;;5.00;;
9819;SDS011;4949;48.482;9.206;2023-03-18T23:47:49;9.50;;;6.03;;
9819;SDS011;4949;48.482;9.206;2023-03-18T23:52:52;6.37;;;5.50;;
9819;SDS011;4949;48.482;9.206;2023-03-18T23:57:53;6.73;;;5.80;;
